Time;durP1;ratioP1;P1;durP2;ratioP2;P2;SDS_P1;SDS_P2;PMS_P1;PMS_P2;Temp;Humidity;BMP_temperature;BMP_pressure;BME280_temperature;BME280_humidity;BME280_pressure;Samples;Min_cycle;Max_cycle;Signal;HPM_P1;HPM_P2
2023/06/19 00:01:48;;;;;;;10.27;8.65;;;22.50;51.00;;;;;;5073886;28;20490;-66
2023/06/19 00:04:14;;;;;;;9.13;8.18;;;22.50;50.90;;;;;;5072215;28;20036;-67
2023/06/19 00:06:40;;;;;;;8.38;7.55;;;22.50;50.70;;;;;;5055857;28;20106;-66
2023/06/19 00:09:07;;;;;;;9.48;7.80;;;22.50;50.50;;;;;;5072071;28;20047;-66
2023/06/19 00:11:33;;;;;;;9.75;8.80;;;22.50;50.70;;;;;;5055607;28;20064;-66
2023/06/19 00:13:59;;;;;;;9.20;8.30;;;22.40;50.40;;;;;;5071780;28;20070;-66
2023/06/19 00:16:25;;;;;;;10.32;7.72;;;22.40;50.20;;;;;;5072189;28;20060;-66
2023/06/19 00:18:55;;;;;;;11.45;8.45;;;22.40;50.10;;;;;;5072108;28;20072;-66
2023/06/19 00:21:23;;;;;;;8.63;7.78;;;22.40;50.10;;;;;;5070240;28;20037;-66
2023/06/19 00:23:49;;;;;;;9.27;8.20;;;22.40;50.10;;;;;;5072447;28;20033;-66
2023/06/19 00:26:19;;;;;;;9.48;8.52;;;22.40;50.00;;;;;;5055600;28;20040;-66
2023/06/19 00:28:47;;;;;;;9.63;8.07;;;22.40;50.10;;;;;;5070732;28;20076;-66
2023/06/19 00:31:14;;;;;;;8.65;7.65;;;22.40;50.00;;;;;;5073261;28;20044;-67
2023/06/19 00:33:41;;;;;;;8.50;7.70;;;22.40;50.10;;;;;;5072095;28;20062;-67
2023/06/19 00:36:10;;;;;;;8.65;7.80;;;22.40;50.10;;;;;;5071716;28;20063;-68
2023/06/19 00:38:36;;;;;;;8.80;7.72;;;22.40;50.40;;;;;;5069910;28;20115;-67
2023/06/19 00:41:03;;;;;;;8.82;8.02;;;22.30;50.50;;;;;;5055007;28;20089;-67
2023/06/19 00:43:29;;;;;;;11.30;8.70;;;22.30;50.50;;;;;;5071743;28;20418;-67
2023/06/19 00:45:57;;;;;;;8.98;8.07;;;22.30;50.50;;;;;;5070815;28;20040;-67
2023/06/19 00:48:23;;;;;;;8.57;7.75;;;22.30;50.10;;;;;;5069239;28;20115;-67
2023/06/19 00:50:50;;;;;;;10.02;8.15;;;22.30;49.90;;;;;;5071635;28;20115;-67
2023/06/19 00:53:17;;;;;;;8.27;7.38;;;22.30;49.30;;;;;;5071602;28;20380;-67
2023/06/19 00:55:44;;;;;;;8.18;7.38;;;22.30;49.00;;;;;;5070992;28;20087;-67
2023/06/19 00:58:10;;;;;;;10.75;7.68;;;22.40;48.60;;;;;;5071399;28;20520;-68
2023/06/19 01:00:35;;;;;;;10.80;8.02;;;22.40;48.00;;;;;;5071039;28;20036;-67
2023/06/19 01:03:01;;;;;;;7.55;6.85;;;22.40;47.80;;;;;;5071678;28;20046;-65
2023/06/19 01:05:27;;;;;;;8.75;7.15;;;22.50;47.60;;;;;;5071102;28;20415;-65
2023/06/19 01:08:12;;;;;;;8.88;7.40;;;22.50;47.30;;;;;;5071079;28;20044;-66
2023/06/19 01:10:46;;;;;;;9.85;7.25;;;22.60;47.10;;;;;;5072464;28;20530;-66
2023/06/19 01:13:23;;;;;;;8.38;7.40;;;22.60;47.00;;;;;;5086359;28;20072;-67
2023/06/19 01:15:50;;;;;;;8.65;7.72;;;22.60;46.90;;;;;;5070914;28;20052;-66
2023/06/19 01:18:16;;;;;;;7.97;7.15;;;22.70;46.80;;;;;;5071182;28;20079;-66
2023/06/19 01:20:42;;;;;;;9.45;7.57;;;22.70;46.50;;;;;;5071082;28;20456;-66
2023/06/19 01:23:09;;;;;;;8.70;7.20;;;22.70;46.50;;;;;;5070629;28;20071;-66
2023/06/19 01:25:35;;;;;;;8.80;7.07;;;22.80;46.50;;;;;;5070714;28;20036;-66
2023/06/19 01:28:05;;;;;;;9.02;7.28;;;22.90;46.40;;;;;;5071010;28;20041;-66
2023/06/19 01:30:32;;;;;;;8.77;7.88;;;22.90;46.40;;;;;;5070964;28;20079;-67
2023/06/19 01:33:14;;;;;;;8.18;7.38;;;22.90;46.50;;;;;;5070650;28;20503;-67
2023/06/19 01:35:43;;;;;;;11.90;8.68;;;22.90;46.40;;;;;;5070829;28;20051;-66
2023/06/19 01:38:10;;;;;;;8.50;7.63;;;22.90;46.50;;;;;;5070679;28;20487;-66
2023/06/19 01:40:37;;;;;;;8.05;7.35;;;22.90;46.40;;;;;;5071056;28;20128;-66
2023/06/19 01:43:05;;;;;;;8.75;7.78;;;22.90;46.50;;;;;;5071474;28;20051;-66
2023/06/19 01:45:31;;;;;;;8.88;7.97;;;23.00;46.60;;;;;;5069456;28;20055;-66
2023/06/19 01:47:57;;;;;;;10.80;8.30;;;23.00;46.60;;;;;;5070814;28;20084;-66
2023/06/19 01:50:23;;;;;;;8.73;7.32;;;23.00;46.60;;;;;;5070388;28;20041;-66
2023/06/19 01:52:50;;;;;;;8.35;7.20;;;23.00;46.80;;;;;;5070439;28;20041;-66
2023/06/19 01:55:16;;;;;;;9.35;7.82;;;22.90;46.80;;;;;;5069822;28;20372;-66
2023/06/19 01:57:42;;;;;;;8.70;7.78;;;22.90;46.90;;;;;;5071548;28;20142;-66
2023/06/19 02:00:09;;;;;;;8.85;7.13;;;22.90;47.00;;;;;;5070697;28;20029;-67
2023/06/19 02:02:36;;;;;;;8.43;7.63;;;22.90;47.10;;;;;;5053870;28;20043;-66
2023/06/19 02:05:02;;;;;;;8.00;7.30;;;22.90;47.60;;;;;;5071557;28;20127;-67
2023/06/19 02:07:27;;;;;;;9.95;7.47;;;22.90;47.70;;;;;;5069990;28;20123;-66
2023/06/19 02:09:54;;;;;;;8.40;7.50;;;22.90;47.80;;;;;;5070252;28;20094;-66
2023/06/19 02:12:19;;;;;;;10.30;7.93;;;22.90;48.00;;;;;;5070648;28;20450;-67
2023/06/19 02:14:45;;;;;;;8.63;7.50;;;22.90;48.00;;;;;;5070063;28;20080;-67
2023/06/19 02:17:11;;;;;;;7.30;6.50;;;22.80;48.10;;;;;;5071497;28;20668;-67
2023/06/19 02:19:36;;;;;;;10.27;7.85;;;22.80;48.20;;;;;;5071334;28;20553;-67
2023/06/19 02:22:02;;;;;;;10.18;7.57;;;22.80;48.40;;;;;;5070425;28;20049;-67
2023/06/19 02:24:28;;;;;;;8.48;7.63;;;22.80;48.50;;;;;;5070417;28;20055;-67
2023/06/19 02:26:54;;;;;;;8.23;7.43;;;22.70;48.70;;;;;;5071442;28;20043;-67
2023/06/19 02:29:20;;;;;;;12.55;8.45;;;22.70;48.90;;;;;;5070522;28;20067;-67
2023/06/19 02:31:45;;;;;;;8.55;7.65;;;22.70;49.00;;;;;;5070516;28;20476;-70
2023/06/19 02:34:11;;;;;;;7.93;7.10;;;22.70;49.30;;;;;;5070074;28;20047;-70
2023/06/19 02:36:37;;;;;;;8.45;7.65;;;22.70;49.40;;;;;;5069887;28;20044;-70
2023/06/19 02:39:06;;;;;;;8.65;7.43;;;22.60;49.60;;;;;;5070570;28;20124;-70
2023/06/19 02:41:32;;;;;;;7.05;6.43;;;22.60;49.80;;;;;;5070361;28;20044;-70
2023/06/19 02:43:58;;;;;;;8.90;7.50;;;22.60;49.80;;;;;;5070078;28;20505;-70
2023/06/19 02:46:24;;;;;;;9.35;6.88;;;22.60;50.10;;;;;;5070200;28;20036;-70
2023/06/19 02:48:49;;;;;;;8.27;7.13;;;22.60;50.30;;;;;;5070184;28;20472;-70
2023/06/19 02:51:15;;;;;;;7.95;6.75;;;22.50;50.40;;;;;;5070217;28;20087;-70
2023/06/19 02:53:41;;;;;;;7.90;7.15;;;22.50;50.80;;;;;;5070294;28;20055;-70
2023/06/19 02:56:07;;;;;;;7.60;6.80;;;22.50;51.00;;;;;;5070118;28;20051;-70
2023/06/19 02:58:34;;;;;;;7.88;6.93;;;22.50;51.00;;;;;;5069810;28;20036;-70
2023/06/19 03:01:00;;;;;;;7.72;7.03;;;22.40;51.20;;;;;;5070184;28;20498;-70
2023/06/19 03:03:26;;;;;;;7.55;6.57;;;22.40;51.40;;;;;;5070017;28;20041;-71
2023/06/19 03:05:51;;;;;;;7.22;6.53;;;22.40;51.50;;;;;;5070070;28;20167;-70
2023/06/19 03:08:17;;;;;;;6.72;6.05;;;22.40;51.70;;;;;;5050362;28;20079;-70
2023/06/19 03:10:43;;;;;;;6.88;5.88;;;22.40;51.70;;;;;;5069229;28;20032;-70
2023/06/19 03:13:09;;;;;;;6.97;6.22;;;22.40;52.10;;;;;;5069930;28;20040;-70
2023/06/19 03:15:34;;;;;;;10.10;6.78;;;22.40;52.50;;;;;;5086546;28;20041;-70
2023/06/19 03:18:04;;;;;;;8.70;6.40;;;22.40;53.00;;;;;;5069574;28;20037;-70
2023/06/19 03:20:29;;;;;;;7.28;6.50;;;22.40;53.10;;;;;;5069814;28;20044;-70
2023/06/19 03:22:55;;;;;;;6.75;5.95;;;22.30;53.20;;;;;;5071786;28;20048;-70
2023/06/19 03:25:21;;;;;;;7.53;6.35;;;22.40;53.10;;;;;;5073309;28;20491;-70
2023/06/19 03:27:46;;;;;;;6.53;5.82;;;22.30;53.30;;;;;;5073320;28;20105;-70
2023/06/19 03:30:12;;;;;;;6.70;6.00;;;22.30;53.70;;;;;;5073329;28;20483;-70
2023/06/19 03:32:38;;;;;;;6.70;6.00;;;22.30;53.90;;;;;;5073594;28;20044;-70
2023/06/19 03:35:05;;;;;;;6.75;5.43;;;22.30;54.30;;;;;;5073026;28;20499;-70
2023/06/19 03:37:32;;;;;;;6.93;5.90;;;22.20;54.20;;;;;;5073036;28;20048;-70
2023/06/19 03:39:58;;;;;;;6.60;5.57;;;22.30;54.60;;;;;;5072951;28;20101;-69
2023/06/19 03:42:24;;;;;;;5.28;4.78;;;22.30;55.20;;;;;;5072930;28;20111;-69
2023/06/19 03:44:49;;;;;;;6.50;5.30;;;22.20;55.30;;;;;;5072883;28;20044;-69
2023/06/19 03:47:16;;;;;;;5.85;4.55;;;22.10;55.60;;;;;;5072927;28;20105;-70
2023/06/19 03:49:42;;;;;;;6.10;5.00;;;22.10;55.50;;;;;;5072871;28;20044;-70
2023/06/19 03:52:08;;;;;;;6.53;5.40;;;22.10;56.00;;;;;;5073127;28;20045;-70
2023/06/19 03:54:33;;;;;;;6.45;4.63;;;22.10;56.30;;;;;;5056077;28;20055;-69
2023/06/19 03:56:59;;;;;;;5.82;5.25;;;22.10;56.30;;;;;;5073171;28;20086;-70
2023/06/19 03:59:25;;;;;;;6.45;5.40;;;22.00;56.70;;;;;;5056025;28;20525;-70
2023/06/19 04:01:51;;;;;;;6.68;5.07;;;22.00;56.70;;;;;;5073181;28;20564;-70
2023/06/19 04:04:16;;;;;;;6.03;5.43;;;22.00;56.90;;;;;;5072629;28;20106;-70
2023/06/19 04:06:42;;;;;;;6.50;5.40;;;21.90;57.00;;;;;;5072549;28;20106;-70
2023/06/19 04:09:08;;;;;;;6.18;5.00;;;21.90;57.30;;;;;;5069878;28;20063;-70
2023/06/19 04:11:33;;;;;;;6.80;5.57;;;21.90;57.40;;;;;;5072649;28;20093;-70
2023/06/19 04:13:59;;;;;;;5.80;5.20;;;21.90;57.60;;;;;;5072339;28;20044;-69
2023/06/19 04:16:25;;;;;;;5.88;5.13;;;21.80;57.70;;;;;;5072040;28;20048;-69
2023/06/19 04:18:50;;;;;;;6.07;5.47;;;21.80;58.10;;;;;;5072691;28;21612;-69
2023/06/19 04:21:16;;;;;;;6.70;5.05;;;21.80;58.30;;;;;;5072209;28;20037;-70
2023/06/19 04:23:42;;;;;;;5.88;5.28;;;21.80;58.60;;;;;;5072234;28;20044;-70
2023/06/19 04:26:07;;;;;;;7.05;5.70;;;21.80;58.60;;;;;;5055696;28;20102;-70
2023/06/19 04:28:33;;;;;;;6.65;5.10;;;21.70;58.90;;;;;;5071503;28;20037;-70
2023/06/19 04:31:01;;;;;;;6.82;5.90;;;21.70;58.90;;;;;;5072478;28;20063;-70
2023/06/19 04:33:28;;;;;;;6.05;5.45;;;21.70;59.30;;;;;;5088999;28;20048;-69
2023/06/19 04:35:54;;;;;;;6.30;5.43;;;21.70;59.60;;;;;;5071011;28;20082;-69
2023/06/19 04:38:23;;;;;;;6.55;5.22;;;21.60;60.20;;;;;;5071832;28;20064;-69
2023/06/19 04:40:53;;;;;;;4.90;4.40;;;21.60;60.40;;;;;;5071597;28;20086;-69
2023/06/19 04:43:19;;;;;;;5.72;4.90;;;21.60;60.70;;;;;;5071120;28;20064;-69
2023/06/19 04:45:45;;;;;;;5.07;4.30;;;21.50;60.80;;;;;;5072269;28;20097;-69
2023/06/19 04:48:11;;;;;;;5.95;4.45;;;21.50;61.40;;;;;;5071969;28;20411;-70
2023/06/19 04:50:37;;;;;;;5.65;4.50;;;21.50;61.70;;;;;;5071905;28;20035;-70
2023/06/19 04:53:03;;;;;;;5.10;4.40;;;21.50;61.80;;;;;;5088396;28;20044;-69
2023/06/19 04:55:28;;;;;;;5.53;4.22;;;21.50;62.20;;;;;;5071732;28;20415;-70
2023/06/19 04:57:55;;;;;;;6.07;4.38;;;21.50;62.60;;;;;;5054853;28;20455;-69
2023/06/19 05:00:21;;;;;;;6.20;4.65;;;21.50;62.70;;;;;;5071417;28;20097;-70
2023/06/19 05:02:47;;;;;;;4.95;4.30;;;21.50;63.00;;;;;;5071197;28;20066;-70
2023/06/19 05:05:13;;;;;;;5.10;4.60;;;21.50;63.40;;;;;;5070804;28;20044;-71
2023/06/19 05:07:40;;;;;;;5.55;4.15;;;21.50;63.50;;;;;;5072128;28;20052;-70
2023/06/19 05:10:07;;;;;;;5.85;4.22;;;21.50;63.90;;;;;;5055823;28;20040;-70
2023/06/19 05:12:34;;;;;;;6.95;4.70;;;21.50;63.90;;;;;;5072422;28;20110;-70
2023/06/19 05:15:00;;;;;;;5.28;3.95;;;21.50;63.90;;;;;;5071758;28;20052;-69
2023/06/19 05:17:26;;;;;;;5.30;4.63;;;21.50;63.80;;;;;;5055547;28;20090;-70
2023/06/19 05:19:52;;;;;;;6.82;5.22;;;21.50;64.10;;;;;;5073381;28;20040;-69
2023/06/19 05:22:18;;;;;;;4.80;4.28;;;21.50;64.50;;;;;;5071807;28;20045;-69
2023/06/19 05:24:44;;;;;;;5.05;3.70;;;21.50;64.40;;;;;;5071740;28;20562;-69
2023/06/19 05:27:10;;;;;;;5.10;4.60;;;21.50;64.00;;;;;;5055475;28;20123;-69
2023/06/19 05:29:36;;;;;;;5.72;5.10;;;21.50;64.10;;;;;;5071996;28;20123;-69
2023/06/19 05:32:02;;;;;;;6.68;5.15;;;21.60;64.80;;;;;;5071954;28;20127;-69
2023/06/19 05:34:27;;;;;;;6.30;4.72;;;21.60;65.20;;;;;;5072046;28;20070;-66
2023/06/19 05:36:53;;;;;;;5.50;4.75;;;21.60;64.90;;;;;;5071670;28;20133;-66
2023/06/19 05:39:19;;;;;;;6.63;5.68;;;21.60;65.00;;;;;;5071761;28;20387;-66
2023/06/19 05:41:45;;;;;;;4.50;3.92;;;21.60;65.40;;;;;;5054863;28;20048;-66
2023/06/19 05:44:16;;;;;;;6.13;5.40;;;21.70;65.20;;;;;;5071647;28;20532;-67
2023/06/19 05:46:42;;;;;;;5.72;4.93;;;21.70;65.80;;;;;;5071278;28;20048;-67
2023/06/19 05:49:08;;;;;;;7.32;5.05;;;21.70;65.70;;;;;;5073029;28;20488;-67
2023/06/19 05:51:34;;;;;;;5.05;4.55;;;21.70;65.60;;;;;;5072613;28;20032;-67
2023/06/19 05:54:03;;;;;;;8.55;5.60;;;21.70;66.00;;;;;;5071863;28;20044;-67
2023/06/19 05:56:30;;;;;;;8.32;5.40;;;21.80;66.90;;;;;;5070268;28;20071;-67
2023/06/19 05:58:56;;;;;;;7.15;4.72;;;21.80;67.30;;;;;;5071904;28;20062;-67
2023/06/19 06:01:22;;;;;;;6.28;4.97;;;21.80;67.80;;;;;;5070779;28;20566;-70
2023/06/19 06:03:47;;;;;;;8.93;6.03;;;21.80;68.00;;;;;;5071488;28;20054;-70
2023/06/19 06:06:13;;;;;;;8.48;7.70;;;21.80;69.00;;;;;;5071272;28;20048;-70
2023/06/19 06:08:39;;;;;;;9.82;7.93;;;21.80;69.60;;;;;;5071485;28;20040;-70
2023/06/19 06:11:04;;;;;;;11.00;9.90;;;21.80;70.10;;;;;;5066240;28;20094;-70
2023/06/19 06:13:30;;;;;;;11.65;10.55;;;21.80;70.70;;;;;;5054429;28;20094;-70
2023/06/19 06:15:56;;;;;;;11.77;10.68;;;21.80;71.20;;;;;;5070752;28;20045;-70
2023/06/19 06:18:21;;;;;;;11.68;10.57;;;21.80;71.50;;;;;;5070542;28;20128;-70
2023/06/19 06:20:47;;;;;;;12.10;10.80;;;21.80;71.50;;;;;;5071021;28;20079;-70
2023/06/19 06:23:13;;;;;;;12.25;11.02;;;21.80;71.40;;;;;;5070897;28;20040;-70
2023/06/19 06:25:39;;;;;;;11.57;10.50;;;21.80;71.80;;;;;;5065243;28;20040;-70
2023/06/19 06:28:05;;;;;;;9.70;8.63;;;21.70;71.50;;;;;;5071300;28;20048;-70
2023/06/19 06:30:30;;;;;;;11.30;10.07;;;21.70;71.20;;;;;;5077619;28;20441;-70
2023/06/19 06:32:56;;;;;;;16.58;14.88;;;21.70;71.10;;;;;;5084319;28;20032;-70
2023/06/19 06:35:22;;;;;;;15.60;13.95;;;21.70;71.40;;;;;;5084054;28;20044;-70
2023/06/19 06:37:49;;;;;;;15.77;14.00;;;21.70;71.20;;;;;;5067915;28;20125;-70
2023/06/19 06:40:15;;;;;;;14.88;13.38;;;21.70;71.00;;;;;;5084670;28;20043;-71
2023/06/19 06:42:41;;;;;;;15.52;13.95;;;21.70;70.80;;;;;;5066060;28;20040;-70
2023/06/19 06:45:07;;;;;;;16.95;14.98;;;21.70;70.80;;;;;;5074578;28;20127;-71
2023/06/19 06:47:34;;;;;;;15.90;14.40;;;21.60;70.70;;;;;;5059976;28;20691;-71
2023/06/19 06:50:00;;;;;;;13.10;11.65;;;21.70;70.90;;;;;;5083355;28;20119;-71
2023/06/19 06:52:27;;;;;;;13.85;12.40;;;21.60;70.50;;;;;;5084397;28;20158;-70
2023/06/19 06:54:53;;;;;;;14.90;13.05;;;21.60;70.20;;;;;;5078437;28;20495;-70
2023/06/19 06:57:19;;;;;;;12.07;10.85;;;21.60;70.40;;;;;;5085616;28;20030;-70
2023/06/19 06:59:45;;;;;;;11.20;10.15;;;21.60;70.20;;;;;;5087044;28;20521;-70
2023/06/19 07:02:10;;;;;;;12.27;10.20;;;21.60;69.90;;;;;;5088283;28;20394;-70
2023/06/19 07:04:36;;;;;;;12.23;10.20;;;21.60;69.80;;;;;;5084616;28;20040;-71
2023/06/19 07:07:04;;;;;;;12.23;8.32;;;21.60;69.80;;;;;;5088291;28;21442;-70
2023/06/19 07:09:29;;;;;;;9.15;8.25;;;21.60;69.50;;;;;;5088528;28;20046;-70
2023/06/19 07:11:56;;;;;;;8.80;7.90;;;21.70;69.60;;;;;;5087705;28;20486;-70
2023/06/19 07:14:22;;;;;;;7.97;6.28;;;21.60;69.60;;;;;;5087342;28;20070;-70
2023/06/19 07:16:49;;;;;;;6.68;5.90;;;21.60;69.60;;;;;;5087562;28;20490;-70
2023/06/19 07:19:15;;;;;;;6.50;5.82;;;21.60;69.30;;;;;;5087219;28;20032;-70
2023/06/19 07:21:41;;;;;;;6.03;5.07;;;21.60;69.10;;;;;;5086207;28;20039;-70
2023/06/19 07:24:06;;;;;;;5.95;5.35;;;21.60;68.80;;;;;;5086634;28;20159;-70
2023/06/19 07:26:32;;;;;;;5.68;5.10;;;21.60;68.60;;;;;;5083291;28;20134;-70
2023/06/19 07:28:58;;;;;;;5.22;4.72;;;21.60;68.50;;;;;;5081944;28;20043;-70
2023/06/19 07:31:23;;;;;;;6.15;4.88;;;21.60;68.20;;;;;;5084315;28;20110;-70
2023/06/19 07:33:49;;;;;;;5.60;4.80;;;21.60;68.10;;;;;;5088200;28;20146;-70
2023/06/19 07:36:15;;;;;;;5.20;4.50;;;21.60;67.90;;;;;;5082366;28;20044;-70
2023/06/19 07:38:44;;;;;;;5.68;3.92;;;21.60;67.60;;;;;;5085659;28;20036;-69
2023/06/19 07:41:11;;;;;;;5.40;4.90;;;21.70;67.30;;;;;;5087534;28;20043;-70
2023/06/19 07:43:39;;;;;;;6.13;4.93;;;21.70;67.20;;;;;;5088317;28;20044;-69
2023/06/19 07:46:05;;;;;;;4.15;3.50;;;21.70;66.70;;;;;;5087425;28;20056;-69
2023/06/19 07:48:31;;;;;;;5.03;4.53;;;21.70;66.40;;;;;;5086884;28;20379;-69
2023/06/19 07:50:57;;;;;;;5.43;4.05;;;21.60;66.20;;;;;;5088047;28;20040;-69
2023/06/19 07:53:22;;;;;;;3.95;3.42;;;21.70;66.10;;;;;;5087043;28;20032;-70
2023/06/19 07:55:48;;;;;;;3.97;3.38;;;21.70;65.80;;;;;;5085637;28;20040;-69
2023/06/19 07:58:14;;;;;;;6.05;4.50;;;21.70;65.60;;;;;;5086625;28;20032;-69
2023/06/19 08:00:40;;;;;;;6.70;4.13;;;21.70;65.40;;;;;;5079582;28;20052;-69
2023/06/19 08:03:05;;;;;;;4.72;4.07;;;21.70;65.20;;;;;;5069003;28;20044;-70
2023/06/19 08:05:31;;;;;;;4.40;3.92;;;21.70;65.00;;;;;;5074527;28;20109;-68
2023/06/19 08:07:59;;;;;;;3.80;3.40;;;21.70;64.90;;;;;;5072866;28;20045;-68
2023/06/19 08:10:24;;;;;;;5.38;3.92;;;21.70;64.70;;;;;;5056689;28;20462;-69
2023/06/19 08:12:50;;;;;;;4.72;4.22;;;21.70;64.70;;;;;;5072881;28;20135;-70
2023/06/19 08:15:16;;;;;;;5.40;4.57;;;21.70;64.60;;;;;;5056094;28;20053;-69
2023/06/19 08:17:42;;;;;;;6.45;4.40;;;21.70;64.40;;;;;;5073256;28;20037;-69
2023/06/19 08:20:09;;;;;;;5.47;4.10;;;21.70;64.30;;;;;;5055754;28;20082;-69
2023/06/19 08:22:35;;;;;;;5.13;4.47;;;21.70;64.30;;;;;;5073286;28;20041;-70
2023/06/19 08:25:01;;;;;;;6.68;4.10;;;21.70;64.20;;;;;;5072692;28;20048;-70
2023/06/19 08:27:27;;;;;;;5.75;3.65;;;21.70;64.20;;;;;;5073187;28;20075;-70
2023/06/19 08:29:53;;;;;;;6.13;5.43;;;21.70;64.10;;;;;;5072821;28;20041;-70
2023/06/19 08:32:19;;;;;;;6.97;4.57;;;21.70;64.40;;;;;;5065724;28;20064;-70
2023/06/19 08:34:45;;;;;;;8.18;4.85;;;21.70;64.40;;;;;;5073042;28;20047;-70
2023/06/19 08:37:11;;;;;;;7.55;6.75;;;21.70;64.20;;;;;;5065647;28;20662;-70
2023/06/19 08:39:38;;;;;;;6.85;4.95;;;21.70;64.20;;;;;;5072674;28;20083;-70
2023/06/19 08:42:08;;;;;;;7.00;5.32;;;21.80;64.30;;;;;;5073369;28;20055;-69
2023/06/19 08:44:37;;;;;;;6.38;5.78;;;21.80;64.20;;;;;;5072409;28;20162;-69
2023/06/19 08:47:03;;;;;;;9.52;6.72;;;21.80;64.10;;;;;;5072700;28;20422;-69
2023/06/19 08:49:30;;;;;;;11.40;7.38;;;21.80;64.10;;;;;;5072134;28;20487;-69
2023/06/19 08:51:56;;;;;;;11.40;10.20;;;21.80;63.90;;;;;;5072397;28;20139;-69
2023/06/19 08:54:22;;;;;;;11.75;10.32;;;21.90;63.90;;;;;;5071993;28;20479;-69
2023/06/19 08:56:48;;;;;;;13.77;10.68;;;21.90;64.00;;;;;;5072304;28;20063;-69
2023/06/19 08:59:17;;;;;;;13.60;10.43;;;21.90;63.90;;;;;;5071992;28;20029;-66
2023/06/19 09:01:51;;;;;;;11.95;10.52;;;21.90;63.90;;;;;;5071789;28;20090;-67
2023/06/19 09:04:19;;;;;;;11.65;10.35;;;22.10;63.90;;;;;;5072123;28;20394;-67
2023/06/19 09:06:48;;;;;;;12.27;11.02;;;22.10;64.20;;;;;;5072461;28;20045;-67
2023/06/19 09:09:15;;;;;;;15.57;12.88;;;22.10;63.60;;;;;;5071991;28;20052;-67
2023/06/19 09:11:44;;;;;;;13.93;10.88;;;22.20;63.30;;;;;;5063388;28;20075;-66
2023/06/19 09:14:11;;;;;;;13.50;11.90;;;22.30;63.00;;;;;;5055094;28;20388;-66
2023/06/19 09:16:38;;;;;;;12.25;10.43;;;22.30;62.60;;;;;;5070951;28;20499;-66
2023/06/19 09:19:04;;;;;;;10.65;9.57;;;22.40;61.70;;;;;;5071677;28;20028;-65
2023/06/19 09:21:30;;;;;;;10.85;9.50;;;22.50;61.40;;;;;;5054399;28;20429;-66
2023/06/19 09:24:03;;;;;;;13.45;11.55;;;22.50;60.60;;;;;;5071659;28;20044;-65
2023/06/19 09:26:29;;;;;;;11.60;9.98;;;22.60;59.90;;;;;;5071612;28;20051;-65
2023/06/19 09:28:55;;;;;;;11.77;10.57;;;22.60;59.90;;;;;;5071374;28;20046;-65
2023/06/19 09:31:30;;;;;;;13.25;11.93;;;22.70;60.00;;;;;;5054730;28;20045;-66
2023/06/19 09:33:56;;;;;;;10.68;9.57;;;22.70;59.70;;;;;;5072382;28;20032;-66
2023/06/19 09:36:22;;;;;;;11.63;10.38;;;22.70;59.50;;;;;;5071251;28;20036;-66
2023/06/19 09:38:50;;;;;;;12.77;11.52;;;22.80;59.30;;;;;;5071144;28;20036;-65
2023/06/19 09:41:16;;;;;;;10.60;9.02;;;22.80;59.00;;;;;;5072539;28;20047;-65
2023/06/19 09:43:47;;;;;;;11.85;10.57;;;22.80;59.00;;;;;;5070984;28;20484;-65
2023/06/19 09:46:14;;;;;;;13.35;11.10;;;22.80;58.80;;;;;;5071344;28;20563;-66
2023/06/19 09:48:46;;;;;;;14.20;12.65;;;22.70;58.90;;;;;;5070598;28;20048;-66
2023/06/19 09:51:19;;;;;;;13.05;11.75;;;22.70;58.90;;;;;;5067074;28;20044;-66
2023/06/19 09:53:46;;;;;;;15.13;12.45;;;22.70;58.90;;;;;;5063591;28;20041;-65
2023/06/19 09:56:13;;;;;;;12.20;10.90;;;22.70;59.00;;;;;;5071543;28;20127;-65
2023/06/19 09:58:42;;;;;;;13.93;12.02;;;22.60;59.10;;;;;;5082274;28;20448;-66
2023/06/19 10:01:07;;;;;;;12.80;11.00;;;22.60;59.60;;;;;;5082122;28;20036;-65
2023/06/19 10:03:37;;;;;;;13.50;11.60;;;22.70;59.80;;;;;;5066236;28;20048;-66
2023/06/19 10:06:04;;;;;;;11.38;10.27;;;22.70;59.70;;;;;;5064960;28;20080;-67
2023/06/19 10:08:31;;;;;;;10.45;9.32;;;22.80;59.90;;;;;;5082794;28;20406;-66
2023/06/19 10:10:59;;;;;;;11.70;10.02;;;22.90;60.00;;;;;;5083900;28;20414;-66
2023/06/19 10:13:33;;;;;;;11.63;9.73;;;23.00;59.80;;;;;;5081466;28;20044;-66
2023/06/19 10:15:59;;;;;;;11.35;9.70;;;23.10;59.30;;;;;;5081124;28;20446;-66
2023/06/19 10:18:26;;;;;;;12.90;11.43;;;23.20;59.40;;;;;;5080795;28;20383;-66
2023/06/19 10:20:53;;;;;;;11.57;9.90;;;23.30;59.20;;;;;;5065939;28;20157;-66
2023/06/19 10:23:28;;;;;;;12.15;10.90;;;23.30;59.00;;;;;;5082541;28;20111;-66
2023/06/19 10:25:54;;;;;;;11.32;10.15;;;23.40;59.00;;;;;;5081911;28;20551;-68
2023/06/19 10:28:23;;;;;;;10.88;9.65;;;23.50;58.50;;;;;;5081919;28;20044;-66
2023/06/19 10:31:02;;;;;;;10.95;9.85;;;23.50;58.40;;;;;;5081613;28;20044;-66
2023/06/19 10:33:32;;;;;;;11.40;9.90;;;23.50;58.40;;;;;;5086806;28;20036;-66
2023/06/19 10:35:59;;;;;;;11.98;10.43;;;23.60;58.40;;;;;;5084578;28;20048;-66
2023/06/19 10:38:26;;;;;;;11.70;10.60;;;23.60;57.90;;;;;;5088391;28;20047;-67
2023/06/19 10:40:52;;;;;;;9.60;8.68;;;23.60;57.80;;;;;;5085154;28;20035;-66
2023/06/19 10:43:24;;;;;;;10.65;9.20;;;23.60;57.60;;;;;;5087682;28;21399;-67
2023/06/19 10:45:51;;;;;;;11.73;9.60;;;23.60;57.40;;;;;;5084934;28;20048;-66
2023/06/19 10:48:21;;;;;;;8.10;7.30;;;23.70;57.30;;;;;;5086257;28;20036;-66
2023/06/19 10:50:48;;;;;;;9.15;8.00;;;23.70;57.10;;;;;;5083264;28;20036;-66
2023/06/19 10:53:44;;;;;;;9.30;7.38;;;23.60;57.30;;;;;;5085937;28;20044;-66
2023/06/19 10:56:09;;;;;;;8.35;7.30;;;23.70;56.80;;;;;;5067981;28;20127;-66
2023/06/19 10:58:35;;;;;;;10.90;8.50;;;23.60;56.60;;;;;;5086083;28;20115;-66
2023/06/19 11:01:01;;;;;;;9.05;7.78;;;23.70;56.30;;;;;;5084467;28;20036;-66
2023/06/19 11:03:26;;;;;;;10.07;8.60;;;23.70;56.20;;;;;;5069819;28;20048;-66
2023/06/19 11:05:52;;;;;;;11.48;9.05;;;23.70;56.30;;;;;;5069872;28;20044;-66
2023/06/19 11:08:20;;;;;;;11.02;9.85;;;23.70;56.30;;;;;;5083732;28;20054;-67
2023/06/19 11:10:46;;;;;;;10.88;9.55;;;23.70;56.60;;;;;;5082649;28;21513;-66
2023/06/19 11:13:17;;;;;;;11.52;9.65;;;23.70;56.90;;;;;;5070466;28;20075;-66
2023/06/19 11:15:43;;;;;;;12.18;9.80;;;23.80;56.90;;;;;;5082438;28;20067;-66
2023/06/19 11:18:09;;;;;;;10.85;9.73;;;23.80;57.00;;;;;;5082873;28;20044;-66
2023/06/19 11:20:50;;;;;;;13.95;10.93;;;23.80;57.10;;;;;;5082902;28;20040;-66
2023/06/19 11:23:24;;;;;;;12.48;11.18;;;23.90;57.10;;;;;;5085507;28;20070;-66
2023/06/19 11:25:49;;;;;;;;;;;23.90;57.10;;;;;;5083699;28;20491;-66
2023/06/19 11:28:22;;;;;;;11.80;10.38;;;24.00;57.30;;;;;;5085072;28;20002;-66
2023/06/19 11:30:49;;;;;;;10.43;9.30;;;24.10;57.30;;;;;;5067396;28;20043;-67
2023/06/19 11:33:24;;;;;;;10.35;9.32;;;24.20;57.10;;;;;;5084519;28;20497;-67
2023/06/19 11:35:57;;;;;;;12.93;10.30;;;24.30;56.80;;;;;;5083550;28;20063;-66
2023/06/19 11:38:25;;;;;;;13.40;11.05;;;24.40;56.50;;;;;;5083921;28;20040;-66
2023/06/19 11:40:52;;;;;;;11.23;10.15;;;24.50;56.20;;;;;;5082461;28;20032;-66
2023/06/19 11:43:31;;;;;;;13.38;10.40;;;24.60;56.00;;;;;;5084125;28;20572;-66
2023/06/19 11:46:05;;;;;;;13.00;10.23;;;24.70;55.70;;;;;;5085112;28;20071;-66
2023/06/19 11:48:30;;;;;;;;;;;24.70;55.80;;;;;;5085983;28;20072;-65
2023/06/19 11:50:56;;;;;;;11.25;10.05;;;24.80;56.00;;;;;;5084202;28;20401;-65
2023/06/19 11:53:23;;;;;;;12.55;11.27;;;24.80;55.50;;;;;;5083753;28;20433;-70
2023/06/19 11:55:50;;;;;;;12.25;10.25;;;24.90;55.40;;;;;;5081993;28;20051;-69
2023/06/19 11:58:16;;;;;;;13.60;11.63;;;25.00;55.40;;;;;;5062545;28;20759;-70
2023/06/19 12:00:43;;;;;;;14.48;9.57;;;25.10;55.10;;;;;;5085102;28;20036;-70
2023/06/19 12:03:09;;;;;;;13.20;11.35;;;25.10;54.80;;;;;;5068481;28;20159;-69
2023/06/19 12:05:35;;;;;;;10.85;9.70;;;25.20;54.30;;;;;;5084265;28;20036;-69
2023/06/19 12:08:05;;;;;;;10.38;8.45;;;25.30;54.10;;;;;;5085035;28;20487;-69
2023/06/19 12:10:31;;;;;;;10.63;9.52;;;25.30;53.90;;;;;;5084599;28;20050;-69
2023/06/19 12:12:57;;;;;;;12.90;10.02;;;25.40;53.70;;;;;;5057898;28;20047;-69
2023/06/19 12:15:24;;;;;;;11.63;9.88;;;25.40;53.60;;;;;;5077478;28;20062;-69
2023/06/19 12:17:51;;;;;;;10.27;9.20;;;25.50;53.50;;;;;;5082639;28;20124;-70
2023/06/19 12:20:17;;;;;;;11.38;9.85;;;25.60;53.30;;;;;;5085055;28;20126;-70
2023/06/19 12:22:43;;;;;;;11.35;10.15;;;25.60;53.20;;;;;;5082468;28;20480;-69
2023/06/19 12:25:09;;;;;;;10.13;8.57;;;25.70;53.10;;;;;;5081585;28;20544;-69
2023/06/19 12:27:34;;;;;;;12.43;10.00;;;25.80;52.60;;;;;;5085979;28;20130;-70
2023/06/19 12:30:00;;;;;;;9.95;8.27;;;25.80;52.30;;;;;;5084531;28;20047;-69
2023/06/19 12:32:26;;;;;;;10.30;9.30;;;25.90;52.40;;;;;;5084184;28;20040;-69
2023/06/19 12:34:53;;;;;;;9.45;8.40;;;26.00;51.90;;;;;;5082781;28;20052;-70
2023/06/19 12:37:20;;;;;;;11.32;8.27;;;26.00;51.30;;;;;;5083097;28;20097;-69
2023/06/19 12:39:46;;;;;;;9.38;8.48;;;26.10;51.30;;;;;;5085957;28;20520;-69